Time;durP1;ratioP1;P1;durP2;ratioP2;P2;SDS_P1;SDS_P2;PMS_P1;PMS_P2;Temp;Humidity;BMP_temperature;BMP_pressure;BME280_temperature;BME280_humidity;BME280_pressure;Samples;Min_cycle;Max_cycle;Signal;HPM_P1;HPM_P2
2022/06/20 00:00:59;300053.00;1.00;518.01;62267.00;0.21;108.40;;;;;27.00;1.00;;;;;;2264640;61;1104;-81
2022/06/20 00:03:29;578355.00;1.93;996.86;89337.00;0.30;155.16;;;;;27.10;1.00;;;;;;2264633;61;1113;-80
2022/06/20 00:05:55;372467.00;1.24;642.48;152815.00;0.51;264.66;;;;;26.70;1.00;;;;;;2263938;61;2216;-79
2022/06/20 00:08:23;728186.00;2.43;1256.15;185982.00;0.62;321.79;;;;;26.50;1.00;;;;;;2264577;61;1338;-80
2022/06/20 00:10:51;246955.00;0.82;426.71;63039.00;0.21;109.73;;;;;26.60;1.00;;;;;;2264888;61;1142;-80
2022/06/20 00:13:22;321160.00;1.07;554.29;65041.00;0.22;113.19;;;;;26.90;1.00;;;;;;2264644;61;1166;-80
2022/06/20 00:15:52;353837.00;1.18;610.46;73066.00;0.24;127.06;;;;;26.90;1.00;;;;;;2264835;61;1145;-80
2022/06/20 00:18:19;779951.00;2.60;1346.18;152910.00;0.51;264.82;;;;;26.70;1.00;;;;;;2265461;61;1387;-81
2022/06/20 00:20:46;355948.00;1.19;614.08;70670.00;0.24;122.92;;;;;26.80;1.00;;;;;;2265350;61;1185;-81
2022/06/20 00:23:13;481133.00;1.60;829.35;72373.00;0.24;125.86;;;;;26.90;1.00;;;;;;2264569;61;1146;-81
2022/06/20 00:25:41;262896.00;0.88;454.13;69802.00;0.23;121.42;;;;;26.70;1.00;;;;;;2265069;61;1941;-81
2022/06/20 00:28:11;213265.00;0.71;368.75;78248.00;0.26;136.01;;;;;26.60;1.00;;;;;;2265686;61;1337;-80
2022/06/20 00:30:38;374625.00;1.25;646.19;80310.00;0.27;139.57;;;;;26.30;1.00;;;;;;2265090;61;1116;-81
2022/06/20 00:33:07;540858.00;1.80;932.20;172919.00;0.58;299.29;;;;;26.20;1.00;;;;;;2265164;61;1388;-80
2022/06/20 00:35:36;434320.00;1.45;748.81;69325.00;0.23;120.59;;;;;26.40;1.00;;;;;;2264874;61;1243;-80
2022/06/20 00:38:04;404348.00;1.35;697.28;111397.00;0.37;193.24;;;;;26.30;1.00;;;;;;2265065;61;1243;-80
2022/06/20 00:40:36;386750.00;1.29;667.03;95021.00;0.32;164.98;;;;;26.30;1.00;;;;;;2264407;61;1135;-79
2022/06/20 00:43:06;198181.00;0.66;342.79;55128.00;0.18;96.05;;;;;26.60;1.00;;;;;;2264475;61;1126;-80
2022/06/20 00:45:40;634506.00;2.12;1093.84;108727.00;0.36;188.63;;;;;26.60;1.00;;;;;;2264437;61;1938;-80
2022/06/20 00:48:16;519119.00;1.73;894.75;71888.00;0.24;125.02;;;;;26.80;1.00;;;;;;2264893;61;1446;-81
2022/06/20 00:50:48;416080.00;1.39;717.45;150200.00;0.50;260.15;;;;;26.70;1.00;;;;;;2264336;61;1131;-79
2022/06/20 00:53:22;427686.00;1.43;737.41;104321.00;0.35;181.03;;;;;26.60;1.00;;;;;;2264508;61;1601;-80
2022/06/20 00:55:54;381751.00;1.27;658.44;72964.00;0.24;126.88;;;;;26.50;1.00;;;;;;2265336;61;1091;-82
2022/06/20 00:58:33;266653.00;0.89;460.59;67699.00;0.23;117.78;;;;;26.30;1.00;;;;;;2264709;61;1362;-80
2022/06/20 01:01:00;350491.00;1.17;604.71;71005.00;0.24;123.50;;;;;26.60;1.00;;;;;;2268767;61;1134;-80
2022/06/20 01:03:34;370522.00;1.24;639.13;86216.00;0.29;149.77;;;;;26.60;1.00;;;;;;2264784;61;1049;-80
2022/06/20 01:06:06;320475.00;1.07;553.11;122044.00;0.41;211.61;;;;;26.40;1.00;;;;;;2265462;61;1959;-81
2022/06/20 01:08:39;306287.00;1.02;528.73;62125.00;0.21;108.15;;;;;26.50;1.00;;;;;;2265045;61;2086;-81
2022/06/20 01:11:08;509544.00;1.70;878.26;93757.00;0.31;162.79;;;;;26.60;1.00;;;;;;2265269;61;1072;-81
2022/06/20 01:13:35;279461.00;0.93;482.61;60974.00;0.20;106.16;;;;;26.50;1.00;;;;;;2265289;61;1179;-80
2022/06/20 01:16:16;416043.00;1.39;717.39;94698.00;0.32;164.42;;;;;26.50;1.00;;;;;;2264953;61;1184;-81
2022/06/20 01:18:48;1068916.00;3.56;1854.92;290522.00;0.97;501.63;;;;;26.50;1.00;;;;;;2264762;61;1510;-79
2022/06/20 01:21:17;467654.00;1.56;806.15;66886.00;0.22;116.38;;;;;26.40;1.00;;;;;;2264828;61;1108;-81
2022/06/20 01:23:56;214248.00;0.71;370.45;0.00;0.00;0.62;;;;;26.20;1.00;;;;;;2265222;61;1583;-80
2022/06/20 01:26:35;386746.00;1.29;667.02;63875.00;0.21;111.18;;;;;26.10;1.00;;;;;;2264708;61;2014;-80
2022/06/20 01:29:06;99798.00;0.33;173.22;0.00;0.00;0.62;;;;;26.30;1.00;;;;;;2264920;61;1163;-80
2022/06/20 01:31:38;46916.00;0.16;81.85;0.00;0.00;0.62;;;;;26.40;1.00;;;;;;2264154;61;1176;-81
2022/06/20 01:34:06;54109.00;0.18;94.29;0.00;0.00;0.62;;;;;26.20;1.00;;;;;;2264684;61;1092;-81
2022/06/20 01:39:23;45348.00;0.15;79.14;0.00;0.00;0.62;;;;;25.80;1.00;;;;;;2264591;61;728;-82
2022/06/20 01:44:40;155185.00;0.52;268.74;0.00;0.00;0.62;;;;;25.40;1.00;;;;;;2264601;61;1993;-80
2022/06/20 01:47:07;210459.00;0.70;363.93;17372.00;0.06;30.72;;;;;25.60;1.00;;;;;;2264733;61;1447;-81
2022/06/20 01:49:36;180428.00;0.60;312.23;0.00;0.00;0.62;;;;;25.70;1.00;;;;;;2264483;61;2129;-81
2022/06/20 01:52:09;287895.00;0.96;497.11;70623.00;0.24;122.84;;;;;25.50;1.00;;;;;;2264173;61;1109;-81
2022/06/20 01:54:41;28685.00;0.10;50.31;0.00;0.00;0.62;;;;;25.60;1.00;;;;;;2264360;61;1142;-80
2022/06/20 01:57:11;192709.00;0.64;333.37;0.00;0.00;0.62;;;;;25.70;1.00;;;;;;2264239;61;1396;-80
2022/06/20 01:59:45;256779.00;0.86;443.61;53952.00;0.18;94.02;;;;;25.60;1.00;;;;;;2264824;61;1112;-81
2022/06/20 02:02:13;148131.00;0.49;256.59;16772.00;0.06;29.68;;;;;25.60;1.00;;;;;;2264945;61;1142;-82
2022/06/20 02:04:42;143108.00;0.48;247.93;0.00;0.00;0.62;;;;;25.70;1.00;;;;;;2264604;61;2016;-81
2022/06/20 02:07:12;241156.00;0.80;416.74;0.00;0.00;0.62;;;;;25.80;1.00;;;;;;2264942;61;1375;-81
2022/06/20 02:09:41;406440.00;1.35;700.88;109184.00;0.36;189.42;;;;;25.80;1.00;;;;;;2264561;61;1102;-80
2022/06/20 02:12:11;0.00;0.00;0.62;0.00;0.00;0.62;;;;;25.90;1.00;;;;;;2264708;61;1193;-80
2022/06/20 02:14:45;653557.00;2.18;1126.79;124249.00;0.41;215.41;;;;;25.90;1.00;;;;;;2267361;61;1113;-78
2022/06/20 02:17:15;458463.00;1.53;790.34;88985.00;0.30;154.56;;;;;25.70;1.00;;;;;;2265304;61;1434;-80
2022/06/20 02:19:55;364314.00;1.21;628.46;0.00;0.00;0.62;;;;;25.80;1.00;;;;;;2271081;61;1105;-79
2022/06/20 02:22:25;246728.00;0.82;426.32;0.00;0.00;0.62;;;;;25.80;1.00;;;;;;2271429;61;1142;-79
2022/06/20 02:25:02;318752.00;1.06;550.15;36653.00;0.12;64.10;;;;;25.80;1.00;;;;;;2270874;61;1998;-80
2022/06/20 02:27:34;260904.00;0.87;450.70;0.00;0.00;0.62;;;;;25.60;1.00;;;;;;2270787;61;2443;-80
2022/06/20 02:30:04;311168.00;1.04;537.12;0.00;0.00;0.62;;;;;25.70;1.00;;;;;;2266356;61;1061;-79
2022/06/20 02:32:36;545319.00;1.82;939.89;137165.00;0.46;237.68;;;;;25.70;1.00;;;;;;2265218;61;1092;-80
2022/06/20 02:35:07;435983.00;1.45;751.67;28383.00;0.09;49.78;;;;;25.60;1.00;;;;;;2269862;61;1084;-80
2022/06/20 02:37:36;209693.00;0.70;362.61;0.00;0.00;0.62;;;;;25.40;1.00;;;;;;2269173;61;1361;-79
2022/06/20 02:40:06;242475.00;0.81;419.01;0.00;0.00;0.62;;;;;25.50;1.00;;;;;;2266145;61;1136;-80
2022/06/20 02:42:36;624422.00;2.08;1076.41;185172.00;0.62;320.40;;;;;25.20;1.00;;;;;;2265292;61;1179;-81
2022/06/20 02:45:10;64879.00;0.22;112.91;0.00;0.00;0.62;;;;;25.30;1.00;;;;;;2264068;61;2020;-80
2022/06/20 02:47:41;113325.00;0.38;196.57;0.00;0.00;0.62;;;;;25.30;1.00;;;;;;2264491;61;1341;-81
2022/06/20 02:50:11;464492.00;1.55;800.71;78970.00;0.26;137.26;;;;;25.30;1.00;;;;;;2264351;61;1104;-80
2022/06/20 02:52:44;155555.00;0.52;269.38;0.00;0.00;0.62;;;;;25.60;1.00;;;;;;2263752;61;1307;-80
2022/06/20 02:55:16;473844.00;1.58;816.80;162561.00;0.54;281.45;;;;;25.70;1.00;;;;;;2264152;61;1160;-80
2022/06/20 02:57:48;122372584.00;407.91;74238680.00;0.00;0.00;0.62;;;;;25.70;1.00;;;;;;2272083;61;1342;-84
2022/06/20 03:00:20;43763.00;0.15;76.40;0.00;0.00;0.62;;;;;25.70;1.00;;;;;;2272094;61;1084;-84
2022/06/20 03:02:54;218377.00;0.73;377.55;0.00;0.00;0.62;;;;;25.70;1.00;;;;;;2272070;61;1658;-83
2022/06/20 03:05:21;287926.00;0.96;497.16;47870.00;0.16;83.50;;;;;25.40;1.00;;;;;;2272031;61;1985;-84
2022/06/20 03:07:50;189978.00;0.63;328.67;0.00;0.00;0.62;;;;;25.30;1.00;;;;;;2272098;61;1378;-84
2022/06/20 03:10:23;175080.00;0.58;303.02;0.00;0.00;0.62;;;;;25.30;1.00;;;;;;2271974;61;1118;-84
2022/06/20 03:12:50;147695.00;0.49;255.83;0.00;0.00;0.62;;;;;25.50;1.00;;;;;;2271783;61;1657;-84
2022/06/20 03:15:19;603959.00;2.01;1041.06;93063.00;0.31;161.60;;;;;25.60;1.00;;;;;;2271945;61;1176;-83
2022/06/20 03:17:49;217516.00;0.73;376.07;0.00;0.00;0.62;;;;;25.70;1.00;;;;;;2272010;61;1301;-84
2022/06/20 03:20:19;19310.00;0.06;34.08;0.00;0.00;0.62;;;;;25.70;1.00;;;;;;2272280;61;1027;-84
2022/06/20 03:22:54;51431.00;0.17;89.66;0.00;0.00;0.62;;;;;25.80;1.00;;;;;;2272368;61;1058;-84
2022/06/20 03:25:22;144610.00;0.48;250.52;0.00;0.00;0.62;;;;;25.90;1.00;;;;;;2272392;61;1916;-84
2022/06/20 03:27:51;166521.00;0.56;288.27;0.00;0.00;0.62;;;;;26.00;1.00;;;;;;2272455;61;1335;-82
2022/06/20 03:30:26;167729.00;0.56;290.35;40354.00;0.13;70.50;;;;;25.90;1.00;;;;;;2272621;61;1955;-84
2022/06/20 03:32:53;66581.00;0.22;115.85;0.00;0.00;0.62;;;;;26.00;1.00;;;;;;2272552;61;1061;-84
2022/06/20 03:35:21;253262.00;0.84;437.56;19353.00;0.06;34.15;;;;;25.90;1.00;;;;;;2272586;61;1136;-82
2022/06/20 03:37:48;210267.00;0.70;363.59;0.00;0.00;0.62;;;;;25.90;1.00;;;;;;2272457;61;1366;-84
2022/06/20 03:40:16;385121.00;1.28;664.23;21803.00;0.07;38.39;;;;;26.10;1.00;;;;;;2272626;61;1151;-83
2022/06/20 03:42:44;121497.00;0.40;210.66;0.00;0.00;0.62;;;;;26.20;1.00;;;;;;2272382;61;1099;-83
2022/06/20 03:45:15;89147.00;0.30;154.83;0.00;0.00;0.62;;;;;26.00;1.00;;;;;;2272547;61;1915;-84
2022/06/20 03:47:51;223553.00;0.75;386.46;81505.00;0.27;141.64;;;;;26.20;1.00;;;;;;2272620;61;1462;-84
2022/06/20 03:50:24;0.00;0.00;0.62;0.00;0.00;0.62;;;;;26.20;1.00;;;;;;2272616;61;1212;-83
2022/06/20 03:52:58;28089.00;0.09;49.28;0.00;0.00;0.62;;;;;26.20;1.00;;;;;;2272508;61;1092;-83
2022/06/20 03:55:31;428821.00;1.43;739.36;0.00;0.00;0.62;;;;;26.30;1.00;;;;;;2272708;61;1101;-83
2022/06/20 03:58:05;197359.00;0.66;341.38;33250.00;0.11;58.21;;;;;26.10;1.00;;;;;;2272541;61;1449;-83
2022/06/20 04:00:38;298679.00;1.00;515.65;45390.00;0.15;79.21;;;;;26.10;1.00;;;;;;2272546;61;1132;-84
2022/06/20 04:03:13;213788.00;0.71;369.65;0.00;0.00;0.62;;;;;26.10;1.00;;;;;;2272586;61;1110;-83
2022/06/20 04:05:46;197728.00;0.66;342.01;28356.00;0.09;49.74;;;;;26.00;1.00;;;;;;2272535;61;1988;-83
2022/06/20 04:08:19;78031.00;0.26;135.64;0.00;0.00;0.62;;;;;26.00;1.00;;;;;;2272482;61;1476;-82
2022/06/20 04:10:59;453926.00;1.51;782.54;129166.00;0.43;223.89;;;;;26.00;1.00;;;;;;2272519;61;1063;-82
2022/06/20 04:13:33;415026.00;1.38;715.64;37046.00;0.12;64.78;;;;;26.00;1.00;;;;;;2272407;61;1098;-81
2022/06/20 04:16:06;217763.00;0.73;376.49;0.00;0.00;0.62;;;;;25.70;1.00;;;;;;2272444;61;1181;-82
2022/06/20 04:18:39;146474.00;0.49;253.73;0.00;0.00;0.62;;;;;25.70;1.00;;;;;;2272628;61;1353;-83
2022/06/20 04:21:20;306887.00;1.02;529.76;63782.00;0.21;111.01;;;;;25.60;1.00;;;;;;2272589;61;1054;-83
2022/06/20 04:23:53;103380.00;0.34;179.41;0.00;0.00;0.62;;;;;25.70;1.00;;;;;;2271987;61;1055;-83
2022/06/20 04:26:26;221237.00;0.74;382.47;16179.00;0.05;28.65;;;;;25.70;1.00;;;;;;2271761;61;1923;-82
2022/06/20 04:29:00;394130.00;1.31;679.71;76716.00;0.26;133.36;;;;;25.60;1.00;;;;;;2271611;61;1438;-84
2022/06/20 04:31:38;284944.00;0.95;492.04;0.00;0.00;0.62;;;;;25.00;1.00;;;;;;2272058;61;1958;-82
2022/06/20 04:34:17;622529.00;2.08;1073.14;69169.00;0.23;120.32;;;;;24.40;1.00;;;;;;2272002;61;1088;-83
2022/06/20 04:36:54;412584.00;1.38;711.44;0.00;0.00;0.62;;;;;24.20;1.00;;;;;;2272248;61;1447;-82
2022/06/20 04:39:26;64096.00;0.21;111.56;0.00;0.00;0.62;;;;;24.70;1.00;;;;;;2272162;61;1132;-84
2022/06/20 04:41:59;114708.00;0.38;198.95;0.00;0.00;0.62;;;;;25.00;1.00;;;;;;2272506;61;1096;-86
2022/06/20 04:44:34;607813.00;2.03;1047.71;65572.00;0.22;114.11;;;;;25.20;1.00;;;;;;2272303;61;1127;-84
2022/06/20 04:47:14;118941.00;0.40;206.26;0.00;0.00;0.62;;;;;25.20;1.00;;;;;;2272235;61;1990;-85
2022/06/20 04:49:43;903692.00;3.01;1562.61;210779.00;0.70;364.48;;;;;25.50;1.00;;;;;;2272112;61;1122;-85
2022/06/20 04:52:15;207157.00;0.69;358.24;0.00;0.00;0.62;;;;;25.40;1.00;;;;;;2271982;61;1100;-84
2022/06/20 04:54:42;513877.00;1.71;885.72;120173.00;0.40;208.38;;;;;25.60;1.00;;;;;;2272362;61;1175;-84
2022/06/20 04:57:12;283290.00;0.94;489.19;50148.00;0.17;87.44;;;;;25.40;1.00;;;;;;2272365;61;1399;-85
2022/06/20 04:59:40;98108.00;0.33;170.31;0.00;0.00;0.62;;;;;25.50;1.00;;;;;;2272062;61;1128;-84
2022/06/20 05:02:14;237453.00;0.79;410.37;48979.00;0.16;85.42;;;;;25.40;1.00;;;;;;2271698;61;1060;-83
2022/06/20 05:04:46;294979.00;0.98;509.29;0.00;0.00;0.62;;;;;25.40;1.00;;;;;;2272468;61;1102;-84
2022/06/20 05:07:18;209937.00;0.70;363.03;0.00;0.00;0.62;;;;;25.40;1.00;;;;;;2272456;61;2014;-84
2022/06/20 05:09:52;609539.00;2.03;1050.69;0.00;0.00;0.62;;;;;25.40;1.00;;;;;;2272478;61;2136;-83
2022/06/20 05:12:24;269905.00;0.90;466.18;0.00;0.00;0.62;;;;;25.40;1.00;;;;;;2272392;61;1167;-85
2022/06/20 05:14:59;266234.00;0.89;459.87;0.00;0.00;0.62;;;;;25.50;1.00;;;;;;2272341;61;1633;-85
2022/06/20 05:17:31;379686.00;1.27;654.89;77239.00;0.26;134.27;;;;;25.60;1.00;;;;;;2271572;61;1368;-84
2022/06/20 05:20:07;10125.00;0.03;18.17;0.00;0.00;0.62;;;;;25.80;1.00;;;;;;2271115;61;1132;-83
2022/06/20 05:22:40;286164.00;0.95;494.13;56240.00;0.19;97.98;;;;;26.00;1.00;;;;;;2271577;61;1144;-84
2022/06/20 05:25:12;513703.00;1.71;885.42;33701.00;0.11;58.99;;;;;26.10;1.00;;;;;;2271905;61;1146;-85
2022/06/20 05:27:46;82863.00;0.28;143.98;0.00;0.00;0.62;;;;;26.40;1.00;;;;;;2271401;61;2003;-84
2022/06/20 05:30:17;85901.00;0.29;149.23;0.00;0.00;0.62;;;;;26.70;1.00;;;;;;2271251;61;1130;-84
2022/06/20 05:32:52;43451.00;0.14;75.86;0.00;0.00;0.62;;;;;26.60;1.00;;;;;;2271267;61;2034;-85
2022/06/20 05:35:25;590219.00;1.97;1017.33;34734.00;0.12;60.78;;;;;26.50;1.00;;;;;;2271381;61;1146;-82
2022/06/20 05:37:59;181448.00;0.60;313.98;30522.00;0.10;53.49;;;;;26.70;1.00;;;;;;2271640;61;1368;-84
2022/06/20 05:40:32;96774.00;0.32;168.00;20771.00;0.07;36.61;;;;;26.90;1.00;;;;;;2272062;61;1625;-86
2022/06/20 05:43:00;317271.00;1.06;547.61;20990.00;0.07;36.98;;;;;26.90;1.00;;;;;;2270804;61;1059;-83
2022/06/20 05:45:31;371889.00;1.24;641.48;40715.00;0.14;71.13;;;;;26.80;1.00;;;;;;2271880;61;1168;-82
2022/06/20 05:48:03;330203.00;1.10;569.84;44414.00;0.15;77.52;;;;;27.10;1.00;;;;;;2272230;61;1380;-83
2022/06/20 05:50:42;341913.00;1.14;589.96;41381.00;0.14;72.28;;;;;27.00;1.00;;;;;;2271894;61;1049;-83
2022/06/20 05:53:15;85841.00;0.29;149.13;0.00;0.00;0.62;;;;;27.20;1.00;;;;;;2271241;61;1161;-82
2022/06/20 05:55:46;226351.00;0.75;391.27;58804.00;0.20;102.41;;;;;27.20;1.00;;;;;;2272291;61;953;-84
2022/06/20 05:58:18;153503.00;0.51;265.84;38121.00;0.13;66.64;;;;;27.10;1.00;;;;;;2271706;61;1395;-84
2022/06/20 06:00:48;146317.00;0.49;253.46;0.00;0.00;0.62;;;;;27.10;1.00;;;;;;2271573;61;1131;-83
2022/06/20 06:03:19;273759.00;0.91;472.81;49821.00;0.17;86.88;;;;;26.90;1.00;;;;;;2271547;61;1107;-83
2022/06/20 06:05:54;91883.00;0.31;159.56;0.00;0.00;0.62;;;;;26.90;1.00;;;;;;2271729;61;1916;-83
2022/06/20 06:08:27;0.00;0.00;0.62;0.00;0.00;0.62;;;;;26.70;1.00;;;;;;2272299;61;1401;-84
2022/06/20 06:11:03;189943.00;0.63;328.61;0.00;0.00;0.62;;;;;26.60;1.00;;;;;;2272343;61;1163;-84
2022/06/20 06:13:39;171824.00;0.57;297.41;0.00;0.00;0.62;;;;;26.80;1.00;;;;;;2272311;61;1107;-85
2022/06/20 06:19:05;174867.00;0.58;302.65;0.00;0.00;0.62;;;;;26.70;1.00;;;;;;2272314;61;1334;-87
2022/06/20 06:21:35;221518.00;0.74;382.96;33118.00;0.11;57.98;;;;;26.80;1.00;;;;;;2272304;61;1135;-85
2022/06/20 06:24:05;423926.00;1.41;730.94;55834.00;0.19;97.27;;;;;26.90;1.00;;;;;;2272155;61;1150;-83
2022/06/20 06:26:35;234751.00;0.78;405.72;15890.00;0.05;28.15;;;;;27.20;1.00;;;;;;2272024;61;2000;-83
2022/06/20 06:29:04;139356.00;0.46;241.46;40729.00;0.14;71.15;;;;;27.30;1.00;;;;;;2271941;61;1030;-84
2022/06/20 06:31:40;302303.00;1.01;521.88;14718.00;0.05;26.12;;;;;27.00;1.00;;;;;;2271903;61;1720;-84
2022/06/20 06:34:17;21877.00;0.07;38.52;0.00;0.00;0.62;;;;;27.20;1.00;;;;;;2272005;61;1145;-84
2022/06/20 06:36:50;245368.00;0.82;423.98;37122.00;0.12;64.91;;;;;27.30;1.00;;;;;;2271955;61;1470;-84
2022/06/20 06:39:24;296002.00;0.99;511.05;27935.00;0.09;49.01;;;;;27.50;1.00;;;;;;2271980;61;1322;-84
2022/06/20 06:41:56;16860.00;0.06;29.83;0.00;0.00;0.62;;;;;27.60;1.00;;;;;;2272163;61;1126;-85
2022/06/20 06:44:31;253698.00;0.85;438.31;33109.00;0.11;57.96;;;;;27.80;1.00;;;;;;2272268;61;1151;-83
2022/06/20 06:47:00;173677.00;0.58;300.60;0.00;0.00;0.62;;;;;27.80;1.00;;;;;;2272025;61;1911;-82
2022/06/20 06:49:35;317744.00;1.06;548.42;32674.00;0.11;57.21;;;;;27.80;1.00;;;;;;2272168;61;1098;-82
2022/06/20 06:52:12;352300.00;1.17;607.81;66959.00;0.22;116.51;;;;;28.00;1.00;;;;;;2271834;61;1054;-82
2022/06/20 06:54:55;71924.00;0.24;125.09;0.00;0.00;0.62;;;;;27.90;1.00;;;;;;2272611;61;1038;-85
2022/06/20 06:57:29;243389.00;0.81;420.58;17211.00;0.06;30.44;;;;;28.30;1.00;;;;;;2272890;61;1468;-83
2022/06/20 07:00:22;363708.00;1.21;627.42;42491.00;0.14;74.20;;;;;28.60;1.00;;;;;;2272938;61;1014;-82
2022/06/20 07:02:53;105968.00;0.35;183.87;0.00;0.00;0.62;;;;;28.90;1.00;;;;;;2272786;61;1138;-84
2022/06/20 07:05:29;168295.00;0.56;291.33;0.00;0.00;0.62;;;;;29.10;1.00;;;;;;2272860;61;1172;-84
2022/06/20 07:08:01;499540.00;1.67;861.03;38297.00;0.13;66.94;;;;;29.10;1.00;;;;;;2272831;61;2024;-85
2022/06/20 07:10:38;190216.00;0.63;329.08;0.00;0.00;0.62;;;;;29.20;1.00;;;;;;2272795;61;1014;-84
2022/06/20 07:13:17;398957.00;1.33;688.01;24239.00;0.08;42.61;;;;;30.50;1.00;;;;;;2272817;61;1091;-85
2022/06/20 07:15:45;9835.00;0.03;17.66;0.00;0.00;0.62;;;;;32.50;1.00;;;;;;2272854;61;1001;-87
2022/06/20 07:18:22;216584.00;0.72;374.47;0.00;0.00;0.62;;;;;32.90;1.00;;;;;;2272809;61;1323;-84
2022/06/20 07:20:50;124138.00;0.41;215.22;18033.00;0.06;31.86;;;;;33.10;1.00;;;;;;2272846;61;1136;-83
2022/06/20 07:23:19;17153.00;0.06;30.34;0.00;0.00;0.62;;;;;33.10;1.00;;;;;;2272522;61;1147;-83
2022/06/20 07:25:50;39432.00;0.13;68.91;0.00;0.00;0.62;;;;;32.80;1.00;;;;;;2272788;61;1048;-84
2022/06/20 07:28:29;69865.00;0.23;121.53;0.00;0.00;0.62;;;;;33.20;1.00;;;;;;2272838;61;1994;-85
2022/06/20 07:31:03;221706.00;0.74;383.28;0.00;0.00;0.62;;;;;33.60;1.00;;;;;;2272914;61;1129;-86
2022/06/20 07:33:35;310367.00;1.03;535.74;71431.00;0.24;124.23;;;;;32.70;1.00;;;;;;2272911;61;1098;-86
2022/06/20 07:36:08;192270.00;0.64;332.62;35845.00;0.12;62.70;;;;;31.60;1.00;;;;;;2272902;61;1126;-88
2022/06/20 07:38:44;95633.00;0.32;166.03;0.00;0.00;0.62;;;;;31.00;1.00;;;;;;2272704;61;1498;-84
2022/06/20 07:41:17;7685.00;0.03;13.94;0.00;0.00;0.62;;;;;31.10;1.00;;;;;;2272838;61;1122;-84
2022/06/20 07:43:51;344789.00;1.15;594.90;40722.00;0.14;71.14;;;;;31.30;1.00;;;;;;2272805;61;1503;-85
2022/06/20 07:46:24;643015.00;2.14;1108.55;193401.00;0.64;334.56;;;;;31.40;1.00;;;;;;2272758;61;1919;-85
2022/06/20 07:48:58;212367.00;0.71;367.21;0.00;0.00;0.62;;;;;31.50;1.00;;;;;;2272757;61;1450;-85
2022/06/20 07:51:31;337166.00;1.12;581.80;0.00;0.00;0.62;;;;;31.60;1.00;;;;;;2272779;61;1074;-86
2022/06/20 07:54:07;135586.00;0.45;234.96;27786.00;0.09;48.75;;;;;31.50;1.00;;;;;;2272771;61;1133;-87
2022/06/20 07:56:38;184860.00;0.62;319.86;0.00;0.00;0.62;;;;;31.80;1.00;;;;;;2272722;61;1044;-84
2022/06/20 07:59:11;997933.00;3.33;1728.81;244576.00;0.82;422.62;;;;;33.20;1.00;;;;;;2272766;61;1118;-86
2022/06/20 08:01:45;230501.00;0.77;398.41;52634.00;0.18;91.74;;;;;34.80;1.00;;;;;;2272677;61;1117;-86
2022/06/20 08:04:13;73064.00;0.24;127.05;0.00;0.00;0.62;;;;;36.10;1.00;;;;;;2272751;61;1112;-86
2022/06/20 08:06:46;107389.00;0.36;186.32;0.00;0.00;0.62;;;;;37.40;1.00;;;;;;2272579;61;1919;-85
2022/06/20 08:09:23;89674.00;0.30;155.74;0.00;0.00;0.62;;;;;37.90;1.00;;;;;;2272424;61;1083;-84
2022/06/20 08:14:29;470198.00;1.57;810.53;25460.00;0.08;44.72;;;;;39.00;1.00;;;;;;2278184;61;1418;-88
2022/06/20 08:16:59;0.00;0.00;0.62;0.00;0.00;0.62;;;;;39.20;1.00;;;;;;2275644;61;1426;-88
2022/06/20 08:19:27;24546.00;0.08;43.14;0.00;0.00;0.62;;;;;39.40;1.00;;;;;;2272237;61;1095;-88
2022/06/20 08:22:00;168187.00;0.56;291.14;0.00;0.00;0.62;;;;;39.50;1.00;;;;;;2269069;61;1054;-83
2022/06/20 08:24:33;0.00;0.00;0.62;0.00;0.00;0.62;;;;;39.30;1.00;;;;;;2269255;61;1154;-83
2022/06/20 08:27:06;55032.00;0.18;95.89;0.00;0.00;0.62;;;;;39.60;1.00;;;;;;2269704;61;1927;-82
2022/06/20 08:29:38;114254.00;0.38;198.17;25680.00;0.09;45.10;;;;;39.60;1.00;;;;;;2270169;61;1126;-84
2022/06/20 08:32:13;56312.00;0.19;98.10;0.00;0.00;0.62;;;;;39.60;1.00;;;;;;2269315;61;1115;-84
2022/06/20 08:34:47;401212.00;1.34;691.89;89044.00;0.30;154.66;;;;;38.70;1.00;;;;;;2269053;61;1065;-84
2022/06/20 08:37:21;206235.00;0.69;356.66;0.00;0.00;0.62;;;;;38.50;1.00;;;;;;2269661;61;1469;-84
2022/06/20 08:39:56;156592.00;0.52;271.17;0.00;0.00;0.62;;;;;38.40;1.00;;;;;;2272593;61;1137;-84
2022/06/20 08:42:55;26688.00;0.09;46.85;0.00;0.00;0.62;;;;;38.50;1.00;;;;;;2272649;61;1043;-84
2022/06/20 08:45:35;0.00;0.00;0.62;0.00;0.00;0.62;;;;;39.10;1.00;;;;;;2269402;61;1009;-88
2022/06/20 08:48:44;294954.00;0.98;509.25;26652.00;0.09;46.79;;;;;39.30;1.00;;;;;;2272244;61;1994;-84
2022/06/20 08:54:51;181710.00;0.61;314.43;36101.00;0.12;63.14;;;;;37.40;1.00;;;;;;2272436;61;1697;-86
2022/06/20 08:57:25;0.00;0.00;0.62;0.00;0.00;0.62;;;;;37.60;1.00;;;;;;2269211;61;1591;-84
2022/06/20 09:00:06;240723.00;0.80;415.99;0.00;0.00;0.62;;;;;38.00;1.00;;;;;;2269847;61;1145;-85
2022/06/20 09:03:08;70804.00;0.24;123.15;0.00;0.00;0.62;;;;;37.50;1.00;;;;;;2269737;61;1172;-85
2022/06/20 09:06:04;319802.00;1.07;551.96;77230.00;0.26;134.25;;;;;37.50;1.00;;;;;;2270391;61;1124;-85
2022/06/20 09:09:05;43982.00;0.15;76.78;0.00;0.00;0.62;;;;;37.80;1.00;;;;;;2270344;61;2021;-84
2022/06/20 09:11:55;234976.00;0.78;406.11;0.00;0.00;0.62;;;;;38.30;1.00;;;;;;2269576;61;1113;-83
2022/06/20 09:14:41;326892.00;1.09;564.14;123199.00;0.41;213.60;;;;;38.00;1.00;;;;;;2271607;61;1129;-85
2022/06/20 09:17:19;0.00;0.00;0.62;0.00;0.00;0.62;;;;;37.80;1.00;;;;;;2269346;61;1383;-84
2022/06/20 09:19:59;146082.00;0.49;253.05;0.00;0.00;0.62;;;;;37.70;1.00;;;;;;2270255;61;1204;-83
2022/06/20 09:22:54;335231.00;1.12;578.48;50228.00;0.17;87.58;;;;;37.50;1.00;;;;;;2270819;61;1113;-84
2022/06/20 09:25:36;69277.00;0.23;120.51;0.00;0.00;0.62;;;;;37.40;1.00;;;;;;2270092;61;1127;-85
2022/06/20 09:28:16;0.00;0.00;0.62;0.00;0.00;0.62;;;;;36.80;1.00;;;;;;2270169;61;2029;-84
2022/06/20 09:30:57;38810.00;0.13;67.83;0.00;0.00;0.62;;;;;36.60;1.00;;;;;;2270729;61;1060;-84
2022/06/20 09:33:40;235571.00;0.79;407.13;17740.00;0.06;31.36;;;;;35.80;1.00;;;;;;2271970;61;1121;-83
2022/06/20 09:36:33;248499.00;0.83;429.37;0.00;0.00;0.62;;;;;35.70;1.00;;;;;;2268078;61;1146;-84
2022/06/20 09:39:19;113526.00;0.38;196.91;0.00;0.00;0.62;;;;;35.20;1.00;;;;;;2268711;61;1426;-84
2022/06/20 09:41:58;153324.00;0.51;265.54;0.00;0.00;0.62;;;;;35.30;1.00;;;;;;2266981;61;1171;-82
2022/06/20 09:44:38;0.00;0.00;0.62;0.00;0.00;0.62;;;;;34.40;1.00;;;;;;2268457;61;1171;-84
2022/06/20 09:47:21;35425.00;0.12;61.97;0.00;0.00;0.62;;;;;33.60;1.00;;;;;;2270041;61;1927;-86
2022/06/20 09:50:01;309716.00;1.03;534.62;71968.00;0.24;125.16;;;;;34.10;1.00;;;;;;2267826;61;1210;-84
2022/06/20 09:52:37;94907.00;0.32;164.78;26827.00;0.09;47.09;;;;;34.10;1.00;;;;;;2267797;61;1127;-84
2022/06/20 09:55:17;146334.00;0.49;253.49;80807.00;0.27;140.43;;;;;34.20;1.00;;;;;;2267052;61;1179;-84
2022/06/20 09:57:55;102326.00;0.34;177.59;0.00;0.00;0.62;;;;;33.60;1.00;;;;;;2268334;61;1493;-83
2022/06/20 10:00:27;218712.00;0.73;378.13;0.00;0.00;0.62;;;;;33.60;1.00;;;;;;2268433;61;1161;-83
2022/06/20 10:03:05;0.00;0.00;0.62;0.00;0.00;0.62;;;;;34.50;1.00;;;;;;2268225;61;1227;-85
2022/06/20 10:05:42;0.00;0.00;0.62;0.00;0.00;0.62;;;;;34.60;1.00;;;;;;2268974;61;1076;-83
2022/06/20 10:08:21;191195.00;0.64;330.77;29371.00;0.10;51.49;;;;;34.60;1.00;;;;;;2270434;61;2012;-82
2022/06/20 10:10:55;237841.00;0.79;411.04;39027.00;0.13;68.20;;;;;34.80;1.00;;;;;;2269609;61;1114;-84
2022/06/20 10:13:31;44641.00;0.15;77.92;0.00;0.00;0.62;;;;;35.00;1.00;;;;;;2268455;61;1227;-82
2022/06/20 10:16:06;306543.00;1.02;529.17;38711.00;0.13;67.66;;;;;34.70;1.00;;;;;;2268663;61;1509;-83
2022/06/20 10:18:42;814.00;0.00;2.03;0.00;0.00;0.62;;;;;34.50;1.00;;;;;;2269453;61;1384;-83
2022/06/20 10:21:18;48910.00;0.16;85.30;0.00;0.00;0.62;;;;;34.50;1.00;;;;;;2268270;61;1222;-82
2022/06/20 10:24:19;78467.00;0.26;136.39;0.00;0.00;0.62;;;;;34.80;1.00;;;;;;2268658;61;1097;-83
2022/06/20 10:27:18;318946.00;1.06;550.49;29920.00;0.10;52.44;;;;;34.70;1.00;;;;;;2262117;61;1309;-84